Time;durP1;ratioP1;P1;durP2;ratioP2;P2;SDS_P1;SDS_P2;PMS_P1;PMS_P2;Temp;Humidity;BMP_temperature;BMP_pressure;BME280_temperature;BME280_humidity;BME280_pressure;Samples;Min_cycle;Max_cycle;Signal;HPM_P1;HPM_P2
2022/10/28 00:01:05;;;;;;;2.75;2.08;;;18.30;99.90;;;;;;5050968;28;20211;-67
2022/10/28 00:03:32;;;;;;;2.80;2.53;;;18.30;99.90;;;;;;5050886;28;20179;-67
2022/10/28 00:06:04;;;;;;;2.70;2.20;;;18.30;99.90;;;;;;5033947;28;20181;-67
2022/10/28 00:08:30;;;;;;;3.35;2.20;;;18.30;99.90;;;;;;5034184;28;20650;-67
2022/10/28 00:11:15;;;;;;;3.67;2.47;;;18.30;99.90;;;;;;5034529;28;20189;-67
2022/10/28 00:13:42;;;;;;;2.45;2.17;;;18.30;99.90;;;;;;5050807;28;20189;-67
2022/10/28 00:16:13;;;;;;;2.30;2.10;;;18.30;99.90;;;;;;5050785;28;20190;-67
2022/10/28 00:18:40;;;;;;;2.60;2.15;;;18.30;99.90;;;;;;5050317;28;20206;-67
2022/10/28 00:21:17;;;;;;;2.53;2.03;;;18.30;99.90;;;;;;5034031;28;20233;-67
2022/10/28 00:23:44;;;;;;;2.63;2.15;;;18.30;99.90;;;;;;5034176;28;20169;-67
2022/10/28 00:26:16;;;;;;;3.38;2.35;;;18.30;99.90;;;;;;5051860;28;20178;-68
2022/10/28 00:28:49;;;;;;;3.70;2.25;;;18.30;99.90;;;;;;5050861;28;20252;-67
2022/10/28 00:31:18;;;;;;;3.25;2.30;;;18.30;99.90;;;;;;5050899;28;20190;-67
2022/10/28 00:33:45;;;;;;;2.67;2.35;;;18.30;99.90;;;;;;5051894;28;20185;-67
2022/10/28 00:36:22;;;;;;;3.47;2.10;;;18.30;99.90;;;;;;5051611;28;20186;-67
2022/10/28 00:38:51;;;;;;;2.97;2.22;;;18.30;99.90;;;;;;5050837;28;20216;-67
2022/10/28 00:41:24;;;;;;;4.53;2.40;;;18.30;99.90;;;;;;5050605;28;20203;-67
2022/10/28 00:43:58;;;;;;;3.17;2.65;;;18.30;99.90;;;;;;5050426;28;20634;-67
2022/10/28 00:46:52;;;;;;;2.80;2.40;;;18.30;99.90;;;;;;5053654;28;20186;-67
2022/10/28 00:49:27;;;;;;;3.83;2.63;;;18.30;99.90;;;;;;5054197;28;20589;-67
2022/10/28 00:52:02;;;;;;;2.97;2.28;;;18.30;99.90;;;;;;5055209;28;20221;-67
2022/10/28 00:54:30;;;;;;;4.38;2.63;;;18.30;99.90;;;;;;5037402;28;20183;-67
2022/10/28 00:56:59;;;;;;;3.83;2.33;;;18.30;99.90;;;;;;5037277;28;20191;-67
2022/10/28 00:59:32;;;;;;;3.40;2.40;;;18.30;99.90;;;;;;5037197;28;20238;-67
2022/10/28 01:01:59;;;;;;;3.50;2.60;;;18.30;99.90;;;;;;5054021;28;20175;-67
2022/10/28 01:04:25;;;;;;;3.17;2.30;;;18.30;99.90;;;;;;5037473;28;20201;-67
2022/10/28 01:06:51;;;;;;;3.40;2.40;;;18.30;99.90;;;;;;5037164;28;20178;-67
2022/10/28 01:09:17;;;;;;;3.60;2.30;;;18.30;99.90;;;;;;5037368;28;20203;-67
2022/10/28 01:12:20;;;;;;;2.90;2.47;;;18.30;99.90;;;;;;5037211;28;20190;-67
2022/10/28 01:14:59;;;;;;;3.00;2.40;;;18.30;99.90;;;;;;5037002;28;20213;-67
2022/10/28 01:18:06;;;;;;;2.55;2.35;;;18.30;99.90;;;;;;5054715;28;20174;-66
2022/10/28 01:21:09;;;;;;;5.75;2.80;;;18.30;99.90;;;;;;5036795;28;20214;-67
2022/10/28 01:24:04;;;;;;;2.42;2.20;;;18.30;99.90;;;;;;5053604;28;20166;-67
2022/10/28 01:27:03;;;;;;;3.72;2.50;;;18.30;99.90;;;;;;5037006;28;20256;-67
2022/10/28 01:30:24;;;;;;;2.95;2.47;;;18.30;99.90;;;;;;5062931;22;20238;-69
2022/10/28 01:33:31;;;;;;;2.92;2.30;;;18.30;99.90;;;;;;5012757;28;20199;-70
2022/10/28 01:36:15;;;;;;;2.47;2.28;;;18.30;99.90;;;;;;5066756;28;20187;-70
2022/10/28 01:39:09;;;;;;;2.85;2.38;;;18.30;99.90;;;;;;5050157;28;20646;-69
2022/10/28 01:42:27;;;;;;;3.50;2.60;;;18.30;99.90;;;;;;5034526;28;20211;-70
2022/10/28 01:45:13;;;;;;;4.60;2.03;;;18.20;99.90;;;;;;5006733;28;20207;-70
2022/10/28 01:48:01;;;;;;;2.63;2.08;;;18.30;99.90;;;;;;5033141;28;20609;-70
2022/10/28 01:50:37;;;;;;;3.03;2.45;;;18.30;99.90;;;;;;5033097;28;20195;-70
2022/10/28 01:53:10;;;;;;;3.45;2.33;;;18.30;99.90;;;;;;5049987;28;20187;-70
2022/10/28 01:55:43;;;;;;;3.30;2.22;;;18.30;99.90;;;;;;5049088;28;20219;-69
2022/10/28 01:58:14;;;;;;;3.97;2.13;;;18.30;99.90;;;;;;5049459;28;20210;-70
2022/10/28 02:00:43;;;;;;;2.63;2.10;;;18.30;99.90;;;;;;5033034;28;20215;-70
2022/10/28 02:03:09;;;;;;;2.40;2.00;;;18.20;99.90;;;;;;5033250;28;20171;-70
2022/10/28 02:05:41;;;;;;;2.58;2.20;;;18.20;99.90;;;;;;5016498;28;20179;-69
2022/10/28 02:08:30;;;;;;;2.42;1.90;;;18.30;99.90;;;;;;5016346;28;20167;-69
2022/10/28 02:11:20;;;;;;;3.05;2.30;;;18.20;99.90;;;;;;5032104;28;20223;-69
2022/10/28 02:14:20;;;;;;;2.00;1.80;;;18.30;99.90;;;;;;5016066;28;20187;-69
2022/10/28 02:17:00;;;;;;;2.55;2.33;;;18.20;99.90;;;;;;5015821;28;20179;-70
2022/10/28 02:19:50;;;;;;;1.77;1.60;;;18.20;99.90;;;;;;5032445;28;20207;-69
2022/10/28 02:22:51;;;;;;;2.50;2.08;;;18.30;99.90;;;;;;5032450;28;20168;-69
2022/10/28 02:25:34;;;;;;;3.00;2.00;;;18.30;99.90;;;;;;5033607;28;20178;-70
2022/10/28 02:28:07;;;;;;;2.80;2.15;;;18.20;99.90;;;;;;5033481;28;20213;-69
2022/10/28 02:31:01;;;;;;;2.88;2.40;;;18.20;99.90;;;;;;5032377;28;20217;-69
2022/10/28 02:33:33;;;;;;;2.17;1.98;;;18.20;99.90;;;;;;5049137;28;20597;-69
2022/10/28 02:36:14;;;;;;;2.28;2.08;;;18.30;99.90;;;;;;5031914;28;20586;-69
2022/10/28 02:38:49;;;;;;;2.72;2.45;;;18.20;99.90;;;;;;5048910;28;20190;-69
2022/10/28 02:41:29;;;;;;;2.75;2.28;;;18.20;99.90;;;;;;5032141;28;20209;-68
2022/10/28 02:44:04;;;;;;;2.40;1.92;;;18.20;99.90;;;;;;5049033;28;20176;-69
2022/10/28 02:46:32;;;;;;;2.70;2.13;;;18.20;99.90;;;;;;5031788;28;20171;-69
2022/10/28 02:49:10;;;;;;;3.40;2.30;;;18.20;99.90;;;;;;5048515;28;20207;-69
2022/10/28 02:51:42;;;;;;;4.13;2.13;;;18.20;99.90;;;;;;5031808;28;20191;-69
2022/10/28 02:54:31;;;;;;;4.80;2.33;;;18.20;99.90;;;;;;5048591;28;20220;-68
2022/10/28 02:57:33;;;;;;;2.80;2.10;;;18.20;99.90;;;;;;5031895;28;20179;-68
2022/10/28 03:00:05;;;;;;;2.60;2.05;;;18.20;99.90;;;;;;5032251;28;20218;-68
2022/10/28 03:02:31;;;;;;;3.40;2.17;;;18.20;99.90;;;;;;5048193;28;20184;-69
2022/10/28 03:04:57;;;;;;;2.53;2.10;;;18.30;99.90;;;;;;5031624;28;20214;-68
2022/10/28 03:07:23;;;;;;;3.67;2.10;;;18.20;99.90;;;;;;5030533;28;20210;-69
2022/10/28 03:09:48;;;;;;;2.42;2.22;;;18.20;99.90;;;;;;5048083;28;20278;-69
2022/10/28 03:12:14;;;;;;;2.70;2.17;;;18.20;99.90;;;;;;5032719;28;20560;-69
2022/10/28 03:14:41;;;;;;;2.25;1.85;;;18.20;99.90;;;;;;5048138;28;20183;-69
2022/10/28 03:17:07;;;;;;;3.15;1.90;;;18.30;99.90;;;;;;5047908;28;20198;-69
2022/10/28 03:19:33;;;;;;;2.50;1.85;;;18.20;99.90;;;;;;5047975;28;20207;-69
2022/10/28 03:21:59;;;;;;;3.78;2.28;;;18.20;99.90;;;;;;5047948;28;20195;-69
2022/10/28 03:24:25;;;;;;;3.75;2.45;;;18.20;99.90;;;;;;5047890;28;20594;-69
2022/10/28 03:26:51;;;;;;;2.20;1.90;;;18.20;99.90;;;;;;5031420;28;20178;-69
2022/10/28 03:29:16;;;;;;;3.03;2.00;;;18.20;99.90;;;;;;5032227;28;20211;-69
2022/10/28 03:31:42;;;;;;;3.35;2.20;;;18.20;99.90;;;;;;5047936;28;20179;-69
2022/10/28 03:34:08;;;;;;;3.97;2.22;;;18.20;99.90;;;;;;5047686;28;20543;-68
2022/10/28 03:36:33;;;;;;;2.88;2.20;;;18.20;99.90;;;;;;5032181;28;20209;-69
2022/10/28 03:38:59;;;;;;;2.78;1.98;;;18.20;99.90;;;;;;5047640;28;20209;-69
2022/10/28 03:41:25;;;;;;;2.35;1.88;;;18.20;99.90;;;;;;5047599;28;20715;-69
2022/10/28 03:43:51;;;;;;;3.00;2.35;;;18.20;99.90;;;;;;5047660;28;20209;-69
2022/10/28 03:46:16;;;;;;;3.90;2.08;;;18.20;99.90;;;;;;5047785;28;20325;-69
2022/10/28 03:48:42;;;;;;;2.55;1.92;;;18.20;99.90;;;;;;5047554;28;20190;-69
2022/10/28 03:51:08;;;;;;;3.38;2.10;;;18.20;99.90;;;;;;5047520;28;20194;-67
2022/10/28 03:53:33;;;;;;;3.58;2.03;;;18.20;99.90;;;;;;5031044;28;20741;-69
2022/10/28 03:56:01;;;;;;;3.45;2.22;;;18.20;99.90;;;;;;5030815;28;20183;-69
2022/10/28 03:58:27;;;;;;;2.83;2.03;;;18.20;99.90;;;;;;5047753;28;20206;-68
2022/10/28 04:00:55;;;;;;;3.63;1.90;;;18.20;99.90;;;;;;5047714;28;20211;-69
2022/10/28 04:03:23;;;;;;;2.67;2.20;;;18.20;99.90;;;;;;5047382;28;20264;-69
2022/10/28 04:05:49;;;;;;;3.50;2.00;;;18.20;99.90;;;;;;5047142;28;20663;-69
2022/10/28 04:08:17;;;;;;;3.25;2.17;;;18.20;99.90;;;;;;5047474;28;20274;-69
2022/10/28 04:10:43;;;;;;;3.92;2.50;;;18.20;99.90;;;;;;5047243;28;20210;-69
2022/10/28 04:13:09;;;;;;;2.47;2.17;;;18.20;99.90;;;;;;5030936;28;20287;-69
2022/10/28 04:15:36;;;;;;;2.15;1.95;;;18.20;99.90;;;;;;5030649;28;20179;-68
2022/10/28 04:18:02;;;;;;;2.58;1.90;;;18.20;99.90;;;;;;5047514;28;20266;-69
2022/10/28 04:20:30;;;;;;;3.95;2.10;;;18.20;99.90;;;;;;5051139;28;20233;-69
2022/10/28 04:22:56;;;;;;;2.80;2.10;;;18.20;99.90;;;;;;5034935;28;20179;-69
2022/10/28 04:25:24;;;;;;;2.20;2.00;;;18.20;99.90;;;;;;5034859;28;20207;-69
2022/10/28 04:27:49;;;;;;;3.08;2.05;;;18.20;99.90;;;;;;5034275;28;20183;-69
2022/10/28 04:30:16;;;;;;;2.47;2.13;;;18.20;99.90;;;;;;5034243;28;20218;-69
2022/10/28 04:32:43;;;;;;;2.42;2.10;;;18.20;99.90;;;;;;5034126;28;20214;-69
2022/10/28 04:35:11;;;;;;;3.33;2.13;;;18.20;99.90;;;;;;5035618;28;20182;-70
2022/10/28 04:37:38;;;;;;;3.75;2.15;;;18.20;99.90;;;;;;5017603;28;20241;-69
2022/10/28 04:40:05;;;;;;;2.58;2.28;;;18.20;99.90;;;;;;5035715;28;20298;-69
2022/10/28 04:42:31;;;;;;;2.35;2.15;;;18.20;99.90;;;;;;5051188;28;20190;-69
2022/10/28 04:44:56;;;;;;;4.45;2.10;;;18.20;99.90;;;;;;5034280;28;20183;-70
2022/10/28 04:47:23;;;;;;;2.22;2.03;;;18.20;99.90;;;;;;5033829;28;20207;-69
2022/10/28 04:49:48;;;;;;;2.50;2.20;;;18.20;99.90;;;;;;5034073;28;20203;-68
2022/10/28 04:52:14;;;;;;;2.50;2.10;;;18.20;99.90;;;;;;5035270;28;20187;-69
2022/10/28 04:54:40;;;;;;;2.95;2.08;;;18.20;99.90;;;;;;5017238;28;20190;-70
2022/10/28 04:57:05;;;;;;;2.50;2.30;;;18.20;99.90;;;;;;5033792;28;20188;-69
2022/10/28 04:59:31;;;;;;;2.42;2.13;;;18.20;99.90;;;;;;5033781;28;20195;-70
2022/10/28 05:01:57;;;;;;;3.72;2.45;;;18.20;99.90;;;;;;5034237;28;20214;-69
2022/10/28 05:04:23;;;;;;;3.45;2.10;;;18.20;99.90;;;;;;5050599;28;20268;-71
2022/10/28 05:06:49;;;;;;;3.28;2.30;;;18.20;99.90;;;;;;5033969;28;20270;-69
2022/10/28 05:09:14;;;;;;;2.95;2.65;;;18.20;99.90;;;;;;5050339;28;20199;-70
2022/10/28 05:11:40;;;;;;;3.63;2.10;;;18.20;99.90;;;;;;5034029;28;20194;-69
2022/10/28 05:14:06;;;;;;;3.47;2.33;;;18.20;99.90;;;;;;5033467;28;20175;-69
2022/10/28 05:16:31;;;;;;;2.45;2.10;;;18.20;99.90;;;;;;5047691;28;20249;-69
2022/10/28 05:18:58;;;;;;;2.72;2.22;;;18.20;99.90;;;;;;5014565;28;20645;-70
2022/10/28 05:21:23;;;;;;;3.40;2.20;;;18.20;99.90;;;;;;5031051;28;20594;-70
2022/10/28 05:23:49;;;;;;;2.55;2.33;;;18.20;99.90;;;;;;5031402;28;20182;-69
2022/10/28 05:26:15;;;;;;;3.13;2.35;;;18.20;99.90;;;;;;5030189;28;20183;-70
2022/10/28 05:28:42;;;;;;;2.63;2.40;;;18.20;99.90;;;;;;5049610;28;20175;-70
2022/10/28 05:31:09;;;;;;;4.88;2.50;;;18.20;99.90;;;;;;5032385;28;20191;-69
2022/10/28 05:33:34;;;;;;;3.13;2.55;;;18.20;99.90;;;;;;5049435;28;20229;-69
2022/10/28 05:36:00;;;;;;;3.10;2.53;;;18.20;99.90;;;;;;5032602;28;20187;-70
2022/10/28 05:38:26;;;;;;;4.80;2.70;;;18.20;99.90;;;;;;5032772;28;20187;-70
2022/10/28 05:40:52;;;;;;;3.20;2.75;;;18.20;99.90;;;;;;5032836;28;20285;-70
2022/10/28 05:43:18;;;;;;;4.03;2.70;;;18.20;99.90;;;;;;5049318;28;20570;-70
2022/10/28 05:45:50;;;;;;;3.75;2.75;;;18.20;99.90;;;;;;5032723;28;20190;-70
2022/10/28 05:48:15;;;;;;;4.05;2.80;;;18.20;99.90;;;;;;5032640;28;20211;-69
2022/10/28 05:50:41;;;;;;;4.28;2.83;;;18.20;99.90;;;;;;5032518;28;20209;-70
2022/10/28 05:53:07;;;;;;;3.28;2.50;;;18.20;99.90;;;;;;5049371;28;20183;-69
2022/10/28 05:55:34;;;;;;;4.82;2.95;;;18.20;99.90;;;;;;5048934;28;20202;-70
2022/10/28 05:58:00;;;;;;;3.35;2.97;;;18.20;99.90;;;;;;5048930;28;20275;-70
2022/10/28 06:00:27;;;;;;;3.88;2.90;;;18.20;99.90;;;;;;5049198;28;20668;-69
2022/10/28 06:03:01;;;;;;;3.40;2.92;;;18.20;99.90;;;;;;5049180;28;20277;-69
2022/10/28 06:05:27;;;;;;;3.75;3.00;;;18.20;99.90;;;;;;5065903;28;20183;-69
2022/10/28 06:07:52;;;;;;;3.78;2.35;;;18.20;99.90;;;;;;5048709;28;20184;-70
2022/10/28 06:10:18;;;;;;;4.40;2.88;;;18.20;99.90;;;;;;5015703;28;20234;-70
2022/10/28 06:12:44;;;;;;;4.20;3.03;;;18.20;99.90;;;;;;5032157;28;20183;-70
2022/10/28 06:15:10;;;;;;;3.22;2.80;;;18.20;99.90;;;;;;5049083;28;20630;-70
2022/10/28 06:17:35;;;;;;;4.35;2.97;;;18.20;99.90;;;;;;5048450;28;20179;-69
2022/10/28 06:20:02;;;;;;;3.28;2.83;;;18.10;99.90;;;;;;5033387;28;20227;-69
2022/10/28 06:22:28;;;;;;;4.55;3.00;;;18.20;99.90;;;;;;5032004;28;20187;-69
2022/10/28 06:24:54;;;;;;;4.93;2.50;;;18.20;99.90;;;;;;5031995;28;20306;-69
2022/10/28 06:27:19;;;;;;;4.03;3.03;;;18.10;99.90;;;;;;5031568;28;20194;-70
2022/10/28 06:29:45;;;;;;;4.55;3.00;;;18.10;99.90;;;;;;5048587;28;20223;-69
2022/10/28 06:32:11;;;;;;;4.97;3.35;;;18.20;99.90;;;;;;5033259;28;20210;-70
2022/10/28 06:34:38;;;;;;;4.50;2.97;;;18.20;99.90;;;;;;5031823;28;20183;-69
2022/10/28 06:37:05;;;;;;;4.45;2.80;;;18.20;99.90;;;;;;5031724;28;20202;-70
2022/10/28 06:39:32;;;;;;;3.47;3.00;;;18.20;99.90;;;;;;5031535;28;20250;-69
2022/10/28 06:41:58;;;;;;;4.03;2.70;;;18.20;99.90;;;;;;5048126;28;20191;-70
2022/10/28 06:44:24;;;;;;;5.22;2.97;;;18.20;99.90;;;;;;5048233;28;20179;-69
2022/10/28 06:46:49;;;;;;;3.70;2.83;;;18.20;99.90;;;;;;5030455;28;20245;-71
2022/10/28 06:49:15;;;;;;;4.40;3.08;;;18.20;99.90;;;;;;5028254;28;20212;-70
2022/10/28 06:51:41;;;;;;;5.25;3.10;;;18.20;99.90;;;;;;5031433;28;20197;-70
2022/10/28 06:54:07;;;;;;;5.07;2.92;;;18.20;99.90;;;;;;5047934;28;20243;-69
2022/10/28 06:56:32;;;;;;;3.13;2.60;;;18.20;99.90;;;;;;5032383;28;20193;-70
2022/10/28 06:58:58;;;;;;;5.72;3.00;;;18.20;99.90;;;;;;5048129;28;20215;-70
2022/10/28 07:01:24;;;;;;;4.60;2.58;;;18.20;99.90;;;;;;5047922;28;20226;-70
2022/10/28 07:03:49;;;;;;;5.00;3.10;;;18.20;99.90;;;;;;5032623;28;20176;-70
2022/10/28 07:06:16;;;;;;;3.88;2.70;;;18.20;99.90;;;;;;5027856;28;20185;-70
2022/10/28 07:08:41;;;;;;;3.45;2.60;;;18.20;99.90;;;;;;5031265;28;20274;-70
2022/10/28 07:11:07;;;;;;;6.25;2.75;;;18.20;99.90;;;;;;5032382;28;20240;-69
2022/10/28 07:13:33;;;;;;;4.68;3.03;;;18.20;99.90;;;;;;5047676;28;20231;-70
2022/10/28 07:16:00;;;;;;;6.25;2.83;;;18.20;99.90;;;;;;5030863;28;20214;-70
2022/10/28 07:18:29;;;;;;;3.47;2.75;;;18.20;99.90;;;;;;5047909;28;20270;-70
2022/10/28 07:21:01;;;;;;;5.18;3.00;;;18.20;99.90;;;;;;5031939;28;20215;-70
2022/10/28 07:23:30;;;;;;;3.50;2.60;;;18.20;99.90;;;;;;5030966;28;20202;-69
2022/10/28 07:25:56;;;;;;;3.85;2.92;;;18.20;99.90;;;;;;5032042;28;20703;-70
2022/10/28 07:28:24;;;;;;;4.97;3.17;;;18.20;99.90;;;;;;5030734;28;20321;-70
2022/10/28 07:30:49;;;;;;;4.45;2.88;;;18.20;99.90;;;;;;5046289;22;20235;-67
2022/10/28 07:33:15;;;;;;;3.60;2.70;;;18.20;99.90;;;;;;4997796;28;20183;-68
2022/10/28 07:35:43;;;;;;;4.13;3.17;;;18.20;99.90;;;;;;5014409;28;20278;-67
2022/10/28 07:38:09;;;;;;;5.53;3.30;;;18.20;99.90;;;;;;4997722;28;20278;-67
2022/10/28 07:40:35;;;;;;;4.22;3.20;;;18.20;99.90;;;;;;5045100;28;20240;-67
2022/10/28 07:43:01;;;;;;;5.05;3.70;;;18.20;99.90;;;;;;5050497;28;20175;-65
2022/10/28 07:45:26;;;;;;;4.25;2.97;;;18.20;99.90;;;;;;5033758;28;20563;-67
2022/10/28 07:47:52;;;;;;;4.47;3.15;;;18.20;99.90;;;;;;5033460;28;20213;-66
2022/10/28 07:50:18;;;;;;;4.57;3.30;;;18.20;99.90;;;;;;5033785;28;20206;-64
2022/10/28 07:52:44;;;;;;;3.10;2.80;;;18.20;99.90;;;;;;5054161;28;20178;-67
2022/10/28 07:55:11;;;;;;;5.55;2.92;;;18.20;99.90;;;;;;5033459;28;20190;-67
2022/10/28 07:57:37;;;;;;;3.83;2.70;;;18.20;99.90;;;;;;5050125;28;20182;-67
2022/10/28 08:00:05;;;;;;;5.05;3.08;;;18.20;99.90;;;;;;5033695;28;20305;-67
2022/10/28 08:02:36;;;;;;;4.72;3.05;;;18.20;99.90;;;;;;5050474;28;20187;-67
2022/10/28 08:05:03;;;;;;;3.95;3.00;;;18.20;99.90;;;;;;5033674;28;20223;-66
2022/10/28 08:07:30;;;;;;;5.65;3.17;;;18.20;99.90;;;;;;5017387;28;20175;-67
2022/10/28 08:09:57;;;;;;;3.42;3.05;;;18.20;99.90;;;;;;5033656;28;20287;-67
2022/10/28 08:12:23;;;;;;;3.55;3.03;;;18.20;99.90;;;;;;5033628;28;20317;-67
2022/10/28 08:14:49;;;;;;;7.35;3.10;;;18.20;99.90;;;;;;5033416;28;20314;-68
2022/10/28 08:17:15;;;;;;;3.20;2.65;;;18.20;99.90;;;;;;5033778;28;20182;-67
2022/10/28 08:19:41;;;;;;;4.88;3.22;;;18.20;99.90;;;;;;5051311;28;20686;-67
2022/10/28 08:22:07;;;;;;;3.67;3.20;;;18.20;99.90;;;;;;5017095;28;20187;-66
2022/10/28 08:24:32;;;;;;;3.53;2.45;;;18.20;99.90;;;;;;5033537;28;20174;-66
2022/10/28 08:26:58;;;;;;;4.97;2.75;;;18.20;99.90;;;;;;5049900;28;20287;-66
2022/10/28 08:29:24;;;;;;;4.43;2.67;;;18.20;99.90;;;;;;5049718;28;20586;-65
2022/10/28 08:31:49;;;;;;;5.22;2.50;;;18.20;99.90;;;;;;5033556;28;20193;-67
2022/10/28 08:34:15;;;;;;;3.80;2.72;;;18.20;99.90;;;;;;5051162;28;20194;-67
2022/10/28 08:36:41;;;;;;;3.47;2.45;;;18.20;99.90;;;;;;5051083;28;20217;-67
2022/10/28 08:39:07;;;;;;;3.38;2.88;;;18.30;99.90;;;;;;5016655;28;20190;-67
2022/10/28 08:42:21;;;;;;;3.35;2.40;;;18.20;99.90;;;;;;5012839;28;20219;-68
2022/10/28 08:44:58;;;;;;;3.15;2.58;;;18.20;99.90;;;;;;5030047;28;20194;-67
2022/10/28 08:47:55;;;;;;;4.40;2.78;;;18.20;99.90;;;;;;5013546;28;20198;-67
2022/10/28 08:50:26;;;;;;;3.45;2.53;;;18.20;99.90;;;;;;5013305;28;20234;-67
2022/10/28 08:52:57;;;;;;;3.42;2.40;;;18.20;99.90;;;;;;5031149;28;20180;-68
2022/10/28 08:55:42;;;;;;;3.63;2.95;;;18.30;99.90;;;;;;5029881;28;20175;-67
2022/10/28 08:58:33;;;;;;;3.92;2.70;;;18.30;99.90;;;;;;5029743;28;20730;-64
2022/10/28 09:00:59;;;;;;;3.40;2.50;;;18.30;99.90;;;;;;5013286;28;20211;-67
2022/10/28 09:03:31;;;;;;;2.65;2.45;;;18.30;99.90;;;;;;5030091;28;20277;-66
2022/10/28 09:06:07;;;;;;;3.17;2.50;;;18.30;99.90;;;;;;5014458;28;20191;-67
2022/10/28 09:08:40;;;;;;;3.28;2.53;;;18.30;99.90;;;;;;5033224;28;20179;-67
2022/10/28 09:11:25;;;;;;;3.70;2.58;;;18.30;99.90;;;;;;5019269;28;20211;-68
2022/10/28 09:14:15;;;;;;;3.30;2.47;;;18.30;99.90;;;;;;5016745;28;20187;-65
2022/10/28 09:16:47;;;;;;;3.42;2.42;;;18.30;99.90;;;;;;5033094;28;20195;-67
2022/10/28 09:19:18;;;;;;;3.88;2.80;;;18.30;99.90;;;;;;5016666;28;20189;-67
2022/10/28 09:22:04;;;;;;;2.70;2.50;;;18.30;99.90;;;;;;5016632;28;20663;-68
2022/10/28 09:24:46;;;;;;;3.67;2.50;;;18.30;99.90;;;;;;5033268;28;20178;-68
2022/10/28 09:28:00;;;;;;;3.67;2.50;;;18.30;99.90;;;;;;5034509;28;20182;-68
2022/10/28 09:31:02;;;;;;;4.07;2.85;;;18.30;99.90;;;;;;5016777;28;20305;-68
2022/10/28 09:33:46;;;;;;;3.38;2.33;;;18.30;99.90;;;;;;5033380;28;20179;-67
2022/10/28 09:36:23;;;;;;;2.85;2.20;;;18.30;99.90;;;;;;5016648;28;20191;-66
2022/10/28 09:38:54;;;;;;;2.55;2.20;;;18.30;99.90;;;;;;5017009;28;20179;-68
2022/10/28 09:41:30;;;;;;;2.40;1.98;;;18.30;99.90;;;;;;5034323;28;20215;-67
2022/10/28 09:44:22;;;;;;;3.38;2.38;;;18.30;99.90;;;;;;5016829;28;20179;-68
2022/10/28 09:46:54;;;;;;;2.60;2.10;;;18.30;99.90;;;;;;5053217;28;20646;-67
2022/10/28 09:49:35;;;;;;;3.15;2.08;;;18.30;99.90;;;;;;5036994;28;20208;-65
2022/10/28 09:52:12;;;;;;;3.05;2.08;;;18.30;99.90;;;;;;5036388;28;20204;-67
2022/10/28 09:54:44;;;;;;;2.40;1.83;;;18.30;99.90;;;;;;5056155;28;20174;-68
2022/10/28 09:57:11;;;;;;;3.38;2.03;;;18.30;99.90;;;;;;5037767;28;20175;-68
2022/10/28 09:59:37;;;;;;;3.35;2.60;;;18.40;99.90;;;;;;5063246;28;20206;-68
2022/10/28 10:02:03;;;;;;;2.63;2.22;;;18.30;99.90;;;;;;5030339;28;20233;-68
2022/10/28 10:04:34;;;;;;;2.90;2.00;;;18.30;99.90;;;;;;5052525;28;20194;-67
2022/10/28 10:07:11;;;;;;;3.05;2.40;;;18.40;99.90;;;;;;5036093;28;20187;-68
2022/10/28 10:09:38;;;;;;;2.28;2.08;;;18.40;99.90;;;;;;5035823;28;20206;-67
2022/10/28 10:12:08;;;;;;;3.80;2.10;;;18.40;99.90;;;;;;5036092;28;20278;-66
2022/10/28 10:14:48;;;;;;;3.40;2.30;;;18.40;99.90;;;;;;5053576;28;20179;-67
2022/10/28 10:17:39;;;;;;;3.30;2.15;;;18.40;99.90;;;;;;5030558;28;20186;-68
2022/10/28 10:20:20;;;;;;;4.95;2.25;;;18.40;99.90;;;;;;5054979;28;20217;-68
2022/10/28 10:22:48;;;;;;;3.00;2.10;;;18.40;99.90;;;;;;5054650;28;20190;-68
2022/10/28 10:25:16;;;;;;;2.63;1.90;;;18.40;99.90;;;;;;5035455;28;20553;-68
2022/10/28 10:27:50;;;;;;;3.45;2.13;;;18.40;99.90;;;;;;5035459;28;20232;-66
2022/10/28 10:30:38;;;;;;;2.78;1.92;;;18.40;99.90;;;;;;5051757;28;20213;-66
2022/10/28 10:33:12;;;;;;;3.95;2.30;;;18.40;99.90;;;;;;5048622;28;20265;-68
2022/10/28 10:35:39;;;;;;;3.20;2.47;;;18.40;99.90;;;;;;5073605;28;20174;-66
2022/10/28 10:38:06;;;;;;;2.25;2.05;;;18.40;99.90;;;;;;5055434;28;20182;-66
2022/10/28 10:40:49;;;;;;;3.33;2.22;;;18.40;99.90;;;;;;5055138;28;20304;-66
2022/10/28 10:43:17;;;;;;;2.38;1.88;;;18.40;99.90;;;;;;5071785;28;20181;-68
2022/10/28 10:46:15;;;;;;;4.30;2.30;;;18.40;99.90;;;;;;5055656;28;20176;-68
2022/10/28 10:48:41;;;;;;;3.47;2.03;;;18.40;99.90;;;;;;5054990;28;20247;-67
2022/10/28 10:51:20;;;;;;;2.60;2.20;;;18.40;99.90;;;;;;5052559;28;20207;-68
2022/10/28 10:53:49;;;;;;;2.47;2.28;;;18.50;99.90;;;;;;5053091;28;20182;-68
2022/10/28 10:56:26;;;;;;;2.38;2.10;;;18.40;99.90;;;;;;5051694;28;20190;-67
2022/10/28 10:58:56;;;;;;;3.17;2.20;;;18.50;99.90;;;;;;5018215;28;20661;-66
2022/10/28 11:01:27;;;;;;;3.83;2.13;;;18.50;99.90;;;;;;5029742;28;20233;-67
2022/10/28 11:04:01;;;;;;;2.38;2.17;;;18.40;99.90;;;;;;5065642;28;20181;-68
2022/10/28 11:06:32;;;;;;;4.18;2.35;;;18.50;99.90;;;;;;5019770;28;20589;-68
2022/10/28 11:09:06;;;;;;;3.60;2.20;;;18.50;99.90;;;;;;5056412;28;20183;-67
2022/10/28 11:11:34;;;;;;;4.60;2.45;;;18.50;99.90;;;;;;5034940;28;20189;-67
2022/10/28 11:14:23;;;;;;;3.40;2.58;;;18.50;99.90;;;;;;5029703;28;20280;-65
2022/10/28 11:17:24;;;;;;;3.47;2.17;;;18.50;99.90;;;;;;5030220;28;20187;-66
2022/10/28 11:19:56;;;;;;;2.40;2.20;;;18.50;99.90;;;;;;5053825;28;20243;-66
2022/10/28 11:22:40;;;;;;;3.90;2.35;;;18.50;99.90;;;;;;5012088;28;20297;-68
2022/10/28 11:25:34;;;;;;;2.80;2.08;;;18.50;99.90;;;;;;5017510;28;20193;-67
2022/10/28 11:28:18;;;;;;;2.97;2.50;;;18.50;99.90;;;;;;5035981;28;20171;-65
2022/10/28 11:31:02;;;;;;;4.70;2.70;;;18.50;99.90;;;;;;5051143;28;20222;-68
2022/10/28 11:33:52;;;;;;;4.03;2.60;;;18.50;99.90;;;;;;5034438;28;20179;-66
2022/10/28 11:36:35;;;;;;;2.53;2.13;;;18.50;99.90;;;;;;5050908;28;20189;-67
2022/10/28 11:39:16;;;;;;;3.72;2.47;;;18.50;99.90;;;;;;5034386;28;20197;-67
2022/10/28 11:42:22;;;;;;;4.72;2.22;;;18.50;99.90;;;;;;5052041;28;20220;-69
2022/10/28 11:45:01;;;;;;;2.92;2.28;;;18.50;99.90;;;;;;5050978;28;20167;-66
2022/10/28 11:47:49;;;;;;;4.13;2.30;;;18.50;99.90;;;;;;5017411;28;20193;-67
2022/10/28 11:51:02;;;;;;;3.45;2.30;;;18.50;99.90;;;;;;5016820;28;20202;-68
2022/10/28 11:54:24;;;;;;;2.95;2.08;;;18.50;99.90;;;;;;5034167;28;20178;-66
2022/10/28 11:57:44;;;;;;;4.18;2.30;;;18.50;99.90;;;;;;5034298;28;20216;-68
2022/10/28 12:00:43;;;;;;;2.70;2.35;;;18.50;99.90;;;;;;5010476;28;20222;-68
2022/10/28 12:03:46;;;;;;;2.55;2.08;;;18.50;99.90;;;;;;5053919;28;20181;-67
2022/10/28 12:06:58;;;;;;;2.28;1.95;;;18.50;99.90;;;;;;5054350;28;20565;-68
2022/10/28 12:09:52;;;;;;;2.95;2.25;;;18.50;99.90;;;;;;5037346;28;20296;-66
2022/10/28 12:13:05;;;;;;;4.88;2.78;;;18.50;99.90;;;;;;5053832;28;20190;-68
2022/10/28 12:16:03;;;;;;;2.95;2.30;;;18.50;99.90;;;;;;4970904;28;20244;-68
2022/10/28 12:18:54;;;;;;;5.57;2.53;;;18.50;99.90;;;;;;5043601;28;20223;-67
2022/10/28 12:21:32;;;;;;;3.33;2.38;;;18.50;99.90;;;;;;5025343;28;20708;-68
2022/10/28 12:23:59;;;;;;;2.80;2.20;;;18.50;99.90;;;;;;5014307;28;20263;-66
2022/10/28 12:26:56;;;;;;;3.70;1.98;;;18.50;99.90;;;;;;5038827;28;20269;-65
2022/10/28 12:29:32;;;;;;;2.75;2.20;;;18.50;99.90;;;;;;5013176;28;20221;-67
2022/10/28 12:32:10;;;;;;;3.17;2.55;;;18.50;99.90;;;;;;5036034;28;20182;-68
2022/10/28 12:35:06;;;;;;;4.93;2.33;;;18.60;99.90;;;;;;5049477;28;20185;-67
2022/10/28 12:38:10;;;;;;;2.70;2.45;;;18.50;99.90;;;;;;5058868;28;20289;-67
2022/10/28 12:41:10;;;;;;;2.70;2.28;;;18.60;99.90;;;;;;4999727;28;20310;-66
2022/10/28 12:43:51;;;;;;;3.17;1.98;;;18.50;99.90;;;;;;5040794;28;20190;-69
2022/10/28 12:46:32;;;;;;;3.13;2.50;;;18.60;99.90;;;;;;5037902;28;20178;-67
2022/10/28 12:49:13;;;;;;;3.05;2.22;;;18.60;99.90;;;;;;5055369;28;20205;-67
2022/10/28 12:51:40;;;;;;;4.97;2.60;;;18.60;99.90;;;;;;5021006;28;20236;-67
2022/10/28 12:54:40;;;;;;;3.42;2.30;;;18.60;99.90;;;;;;5054180;28;20208;-67
2022/10/28 12:57:17;;;;;;;3.42;2.33;;;18.60;99.90;;;;;;5074049;28;20170;-64
2022/10/28 13:00:04;;;;;;;5.38;2.45;;;18.60;99.90;;;;;;5057001;28;20209;-67
2022/10/28 13:03:00;;;;;;;4.97;2.75;;;18.60;99.90;;;;;;5038234;28;20187;-67
2022/10/28 13:06:06;;;;;;;4.20;2.40;;;18.60;99.90;;;;;;5041828;28;20288;-67
2022/10/28 13:08:35;;;;;;;4.15;2.28;;;18.60;99.90;;;;;;5042084;28;20234;-64
2022/10/28 13:11:19;;;;;;;6.88;2.85;;;18.60;99.90;;;;;;5056121;28;20225;-67
2022/10/28 13:13:57;;;;;;;4.97;2.15;;;18.60;99.90;;;;;;5055930;28;20198;-68
2022/10/28 13:16:51;;;;;;;4.07;2.38;;;18.60;99.90;;;;;;5056312;28;20201;-67
2022/10/28 13:19:48;;;;;;;3.70;2.42;;;18.60;99.90;;;;;;5056059;28;20249;-65
2022/10/28 13:23:13;;;;;;;2.78;2.00;;;18.60;99.90;;;;;;5034059;28;20229;-67
2022/10/28 13:25:57;;;;;;;3.30;2.30;;;18.60;99.90;;;;;;5015892;28;20636;-68
2022/10/28 13:28:35;;;;;;;4.05;2.50;;;18.60;99.90;;;;;;5055069;28;20239;-65